createdAt,value
2023-06-04T00:01:54.901Z,14.34
2023-06-04T00:04:24.519Z,14.33
2023-06-04T00:06:52.626Z,14.33
2023-06-04T00:09:20.828Z,14.30
2023-06-04T00:11:48.865Z,14.27
2023-06-04T00:14:17.307Z,14.17
2023-06-04T00:16:45.499Z,14.11
2023-06-04T00:19:13.644Z,14.03
2023-06-04T00:21:41.627Z,13.94
2023-06-04T00:24:10.513Z,13.85
2023-06-04T00:26:40.199Z,13.80
2023-06-04T00:29:08.164Z,13.75
2023-06-04T00:31:36.839Z,13.67
2023-06-04T00:34:05.138Z,13.56
2023-06-04T00:36:33.234Z,13.45
2023-06-04T00:39:01.255Z,13.35
2023-06-04T00:41:29.713Z,13.28
2023-06-04T00:43:57.838Z,13.24
2023-06-04T00:46:26.887Z,13.20
2023-06-04T00:48:56.102Z,13.12
2023-06-04T00:51:24.538Z,13.03
2023-06-04T00:53:53.060Z,12.97
2023-06-04T00:56:21.042Z,12.91
2023-06-04T00:58:49.165Z,12.87
2023-06-04T01:01:28.277Z,12.90
2023-06-04T01:03:57.433Z,12.95
2023-06-04T01:06:29.831Z,12.92
2023-06-04T01:08:59.756Z,12.85
2023-06-04T01:11:35.570Z,12.83
2023-06-04T01:14:04.633Z,12.85
2023-06-04T01:16:37.526Z,12.76
2023-06-04T01:19:11.975Z,12.65
2023-06-04T01:21:40.681Z,12.58
2023-06-04T01:24:09.389Z,12.53
2023-06-04T01:26:38.897Z,12.49
2023-06-04T01:29:08.405Z,12.42
2023-06-04T01:31:37.234Z,12.41
2023-06-04T01:34:08.642Z,12.36
2023-06-04T01:36:38.234Z,12.42
2023-06-04T01:39:06.173Z,12.45
2023-06-04T01:41:34.344Z,12.46
2023-06-04T01:44:02.988Z,12.35
2023-06-04T01:46:32.251Z,12.35
2023-06-04T01:49:00.773Z,12.30
2023-06-04T01:51:28.699Z,12.18
2023-06-04T01:53:56.592Z,12.19
2023-06-04T01:56:24.556Z,12.19
2023-06-04T01:58:53.214Z,12.14
2023-06-04T02:01:21.636Z,12.04
2023-06-04T02:03:49.727Z,11.92
2023-06-04T02:06:17.908Z,11.80
2023-06-04T02:08:46.045Z,11.71
2023-06-04T02:11:14.065Z,11.68
2023-06-04T02:13:42.237Z,11.70
2023-06-04T02:16:10.271Z,11.72
2023-06-04T02:18:39.203Z,11.71
2023-06-04T02:21:07.390Z,11.69
2023-06-04T02:23:35.510Z,11.69
2023-06-04T02:26:03.526Z,11.72
2023-06-04T02:28:31.552Z,11.71
2023-06-04T02:30:59.623Z,11.73
2023-06-04T02:33:27.754Z,11.70
2023-06-04T02:35:56.998Z,11.72
2023-06-04T02:38:25.159Z,11.67
2023-06-04T02:40:53.077Z,11.64
2023-06-04T02:43:21.349Z,11.63
2023-06-04T02:45:49.580Z,11.55
2023-06-04T02:48:18.143Z,11.54
2023-06-04T02:50:46.293Z,11.56
2023-06-04T02:53:14.251Z,11.58
2023-06-04T02:55:42.983Z,11.57
2023-06-04T02:58:11.106Z,11.57
2023-06-04T03:00:39.179Z,11.55
2023-06-04T03:03:07.239Z,11.55
2023-06-04T03:05:35.237Z,11.54
2023-06-04T03:08:05.260Z,11.55
2023-06-04T03:10:33.377Z,11.55
2023-06-04T03:13:01.408Z,11.52
2023-06-04T03:15:29.409Z,11.51
2023-06-04T03:17:59.056Z,11.57
2023-06-04T03:20:27.108Z,11.59
2023-06-04T03:22:55.625Z,11.58
2023-06-04T03:25:24.173Z,11.58
2023-06-04T03:27:52.543Z,11.68
2023-06-04T03:30:20.791Z,11.75
2023-06-04T03:32:59.181Z,11.83
2023-06-04T03:35:27.641Z,11.92
2023-06-04T03:37:55.852Z,11.97
2023-06-04T03:40:24.106Z,11.85
2023-06-04T03:42:52.411Z,11.84
2023-06-04T03:45:22.220Z,11.92
2023-06-04T03:47:51.259Z,11.98
2023-06-04T03:50:19.968Z,11.94
2023-06-04T03:52:49.510Z,11.97
2023-06-04T03:55:17.663Z,12.03
2023-06-04T03:57:46.771Z,12.09
2023-06-04T04:00:16.043Z,12.19
2023-06-04T04:02:47.010Z,12.22
2023-06-04T04:05:21.503Z,12.32
2023-06-04T04:07:50.086Z,12.45
2023-06-04T04:10:21.208Z,12.53
2023-06-04T04:12:49.383Z,12.64
2023-06-04T04:15:18.622Z,12.71
2023-06-04T04:17:46.984Z,12.80
2023-06-04T04:20:17.442Z,12.88
2023-06-04T04:22:51.463Z,13.02
2023-06-04T04:25:21.216Z,13.05
2023-06-04T04:27:49.703Z,13.33
2023-06-04T04:30:18.958Z,13.65
2023-06-04T04:32:52.974Z,13.88
2023-06-04T04:35:27.892Z,14.26
2023-06-04T04:37:58.357Z,14.65
2023-06-04T04:40:27.087Z,14.69
2023-06-04T04:42:56.512Z,14.81
2023-06-04T04:45:24.796Z,14.75
2023-06-04T04:47:53.793Z,14.85
2023-06-04T04:50:22.101Z,14.92
2023-06-04T04:52:50.674Z,14.91
2023-06-04T04:55:18.771Z,14.97
2023-06-04T04:57:47.736Z,15.13
2023-06-04T05:00:16.845Z,15.31
2023-06-04T05:02:45.722Z,15.41
2023-06-04T05:05:14.266Z,15.41
2023-06-04T05:07:42.726Z,15.56
2023-06-04T05:10:11.472Z,15.53
2023-06-04T05:12:40.521Z,15.80
2023-06-04T05:15:09.688Z,15.93
2023-06-04T05:17:41.713Z,15.96
2023-06-04T05:20:13.172Z,16.10
2023-06-04T05:22:44.575Z,16.35
2023-06-04T05:25:12.659Z,16.51
2023-06-04T05:27:41.328Z,16.78
2023-06-04T05:30:10.005Z,17.11
2023-06-04T05:32:42.072Z,17.49
2023-06-04T05:35:12.381Z,18.03
2023-06-04T05:37:43.189Z,18.31
2023-06-04T05:40:12.644Z,18.48
2023-06-04T05:42:42.263Z,18.60
2023-06-04T05:45:11.282Z,18.60
2023-06-04T05:47:39.484Z,18.81
2023-06-04T05:50:07.751Z,18.89
2023-06-04T05:52:38.233Z,18.93
2023-06-04T05:55:09.082Z,19.04
2023-06-04T05:57:37.658Z,19.23
2023-06-04T06:00:12.155Z,19.39
2023-06-04T06:02:44.960Z,19.35
2023-06-04T06:05:20.240Z,19.07
2023-06-04T06:07:48.819Z,19.09
2023-06-04T06:10:17.597Z,19.19
2023-06-04T06:12:45.960Z,19.18
2023-06-04T06:15:14.278Z,19.03
2023-06-04T06:17:43.813Z,19.22
2023-06-04T06:20:13.240Z,19.36
2023-06-04T06:22:41.437Z,19.44
2023-06-04T06:25:09.991Z,19.57
2023-06-04T06:27:42.783Z,19.66
2023-06-04T06:30:13.345Z,19.78
2023-06-04T06:32:41.594Z,19.86
2023-06-04T06:35:09.759Z,19.86
2023-06-04T06:37:43.019Z,19.89
2023-06-04T06:40:11.798Z,19.89
2023-06-04T06:42:39.808Z,19.95
2023-06-04T06:45:08.051Z,19.95
2023-06-04T06:47:36.304Z,19.69
2023-06-04T06:50:04.556Z,19.46
2023-06-04T06:52:34.365Z,19.68
2023-06-04T06:55:02.947Z,19.80
2023-06-04T06:57:31.633Z,19.88
2023-06-04T06:59:59.907Z,19.98
2023-06-04T07:02:28.085Z,20.03
2023-06-04T07:04:56.407Z,20.15
2023-06-04T07:07:24.899Z,20.19
2023-06-04T07:09:52.853Z,20.23
2023-06-04T07:12:20.836Z,20.26
2023-06-04T07:14:48.800Z,20.28
2023-06-04T07:17:16.836Z,20.17
2023-06-04T07:19:44.903Z,19.99
2023-06-04T07:22:12.962Z,20.01
2023-06-04T07:24:41.095Z,20.03
2023-06-04T07:27:16.025Z,20.10
2023-06-04T07:29:45.003Z,20.26
2023-06-04T07:32:13.885Z,20.29
2023-06-04T07:34:41.867Z,20.40
2023-06-04T07:37:10.679Z,20.56
2023-06-04T07:39:40.235Z,20.68
2023-06-04T07:42:08.360Z,20.87
2023-06-04T07:44:38.177Z,20.97
2023-06-04T07:47:06.701Z,21.05
2023-06-04T07:49:34.751Z,20.99
2023-06-04T07:52:02.818Z,21.16
2023-06-04T07:54:30.833Z,21.19
2023-06-04T07:56:59.375Z,21.08
2023-06-04T07:59:27.658Z,21.11
2023-06-04T08:01:55.679Z,21.37
2023-06-04T08:04:23.810Z,21.61
2023-06-04T08:06:52.955Z,21.75
2023-06-04T08:09:20.981Z,21.87
2023-06-04T08:11:50.245Z,21.74
2023-06-04T08:14:18.563Z,21.75
2023-06-04T08:16:47.039Z,21.77
2023-06-04T08:19:17.076Z,21.84
2023-06-04T08:21:46.204Z,21.62
2023-06-04T08:24:14.421Z,21.95
2023-06-04T08:26:43.045Z,22.10
2023-06-04T08:29:11.109Z,22.04
2023-06-04T08:31:40.656Z,22.02
2023-06-04T08:34:09.485Z,22.10
2023-06-04T08:36:37.463Z,22.21
2023-06-04T08:39:05.586Z,22.32
2023-06-04T08:41:59.939Z,22.23
2023-06-04T08:44:28.664Z,22.06
2023-06-04T08:47:02.953Z,21.81
2023-06-04T08:49:35.251Z,21.84
2023-06-04T08:52:03.702Z,22.13
2023-06-04T08:54:32.592Z,22.38
2023-06-04T08:57:01.869Z,22.58
2023-06-04T08:59:30.187Z,22.69
2023-06-04T09:02:00.000Z,22.87
2023-06-04T09:04:29.029Z,22.99
2023-06-04T09:07:02.117Z,23.13
2023-06-04T09:09:31.014Z,23.18
2023-06-04T09:12:02.852Z,23.00
2023-06-04T09:14:30.918Z,22.94
2023-06-04T09:17:00.327Z,22.72
2023-06-04T09:19:28.342Z,22.39
2023-06-04T09:21:57.728Z,22.20
2023-06-04T09:24:26.681Z,22.17
2023-06-04T09:26:54.643Z,22.31
2023-06-04T09:29:22.616Z,22.40
2023-06-04T09:31:59.813Z,22.54
2023-06-04T09:34:28.854Z,22.62
2023-06-04T09:36:57.793Z,22.80
2023-06-04T09:39:25.866Z,23.01
2023-06-04T09:42:01.550Z,23.04
2023-06-04T09:44:30.408Z,23.10
2023-06-04T09:46:59.163Z,23.20
2023-06-04T09:49:27.421Z,23.33
2023-06-04T09:51:55.688Z,23.41
2023-06-04T09:54:23.749Z,23.63
2023-06-04T09:56:51.856Z,23.83
2023-06-04T09:59:20.331Z,23.95
2023-06-04T10:01:48.662Z,23.97
2023-06-04T10:04:16.764Z,24.09
2023-06-04T10:06:45.001Z,24.38
2023-06-04T10:09:15.242Z,24.48
2023-06-04T10:11:48.241Z,24.46
2023-06-04T10:14:20.935Z,24.28
2023-06-04T10:16:49.981Z,24.18
2023-06-04T10:19:19.388Z,24.14
2023-06-04T10:21:47.841Z,24.35
2023-06-04T10:24:15.895Z,24.47
2023-06-04T10:26:43.938Z,24.70
2023-06-04T10:29:13.842Z,24.89
2023-06-04T10:31:42.753Z,24.91
2023-06-04T10:34:11.059Z,24.72
2023-06-04T10:36:46.328Z,24.63
2023-06-04T10:39:14.400Z,24.65
2023-06-04T10:41:43.280Z,24.58
2023-06-04T10:44:11.343Z,24.60
2023-06-04T10:46:44.063Z,24.50
2023-06-04T10:49:13.483Z,24.79
2023-06-04T10:51:42.171Z,24.94
2023-06-04T10:54:10.603Z,24.58
2023-06-04T10:56:39.065Z,24.78
2023-06-04T10:59:14.972Z,24.96
2023-06-04T11:01:43.232Z,24.97
2023-06-04T11:04:24.718Z,24.85
2023-06-04T11:07:12.122Z,24.52
2023-06-04T11:09:49.948Z,24.47
2023-06-04T11:12:17.934Z,24.31
2023-06-04T11:14:59.666Z,24.19
2023-06-04T11:17:27.969Z,24.18
2023-06-04T11:19:56.993Z,24.20
2023-06-04T11:22:25.306Z,23.94
2023-06-04T11:25:02.430Z,24.05
2023-06-04T11:27:36.673Z,24.08
2023-06-04T11:30:08.232Z,24.11
2023-06-04T11:32:36.726Z,24.00
2023-06-04T11:35:08.484Z,23.96
2023-06-04T11:37:36.779Z,23.77
2023-06-04T11:40:16.358Z,23.49
2023-06-04T11:42:44.855Z,23.25
2023-06-04T11:45:13.835Z,23.02
2023-06-04T11:47:52.548Z,23.06
2023-06-04T11:50:21.491Z,22.98
2023-06-04T11:52:50.076Z,22.76
2023-06-04T11:55:24.090Z,22.59
2023-06-04T11:57:52.455Z,22.57
2023-06-04T12:00:21.338Z,22.43
2023-06-04T12:02:52.259Z,22.39
2023-06-04T12:05:21.838Z,22.56
2023-06-04T12:07:53.143Z,22.53
2023-06-04T12:10:21.984Z,22.60
2023-06-04T12:12:57.118Z,22.54
2023-06-04T12:15:25.220Z,22.45
2023-06-04T12:17:55.496Z,22.35
2023-06-04T12:20:37.593Z,22.35
2023-06-04T12:23:07.040Z,22.27
2023-06-04T12:25:35.803Z,22.20
2023-06-04T12:28:05.636Z,22.24
2023-06-04T12:30:40.959Z,22.26
2023-06-04T12:33:09.036Z,22.26
2023-06-04T12:35:37.288Z,22.16
2023-06-04T12:38:06.582Z,22.22
2023-06-04T12:40:34.866Z,22.29
2023-06-04T12:43:03.219Z,22.34
2023-06-04T12:45:31.331Z,22.46
2023-06-04T12:47:59.372Z,22.46
2023-06-04T12:50:27.497Z,22.54
2023-06-04T12:52:56.004Z,22.50
2023-06-04T12:55:25.216Z,22.64
2023-06-04T12:57:54.760Z,22.77
2023-06-04T13:00:22.964Z,22.91
2023-06-04T13:02:51.007Z,23.05
2023-06-04T13:05:19.073Z,23.16
2023-06-04T13:07:47.157Z,23.25
2023-06-04T13:10:15.380Z,23.23
2023-06-04T13:12:43.500Z,23.34
2023-06-04T13:15:12.333Z,23.47
2023-06-04T13:17:40.269Z,23.51
2023-06-04T13:20:09.021Z,23.57
2023-06-04T13:22:36.982Z,23.52
2023-06-04T13:25:05.179Z,23.67
2023-06-04T13:27:33.146Z,23.93
2023-06-04T13:30:01.301Z,24.13
2023-06-04T13:32:29.350Z,24.25
2023-06-04T13:34:57.401Z,24.35
2023-06-04T13:37:25.817Z,24.28
2023-06-04T13:39:53.829Z,24.02
2023-06-04T13:42:22.660Z,23.76
2023-06-04T13:44:51.001Z,23.51
2023-06-04T13:47:19.456Z,23.35
2023-06-04T13:49:47.585Z,23.23
2023-06-04T13:52:15.623Z,23.16
2023-06-04T13:54:44.073Z,22.88
2023-06-04T13:57:12.727Z,22.73
2023-06-04T13:59:41.424Z,22.65
2023-06-04T14:02:09.555Z,22.60
2023-06-04T14:04:37.730Z,22.54
2023-06-04T14:07:07.358Z,22.47
2023-06-04T14:09:36.430Z,22.33
2023-06-04T14:12:04.857Z,22.20
2023-06-04T14:14:37.647Z,22.21
2023-06-04T14:17:06.624Z,22.21
2023-06-04T14:19:34.922Z,22.40
2023-06-04T14:22:03.553Z,22.55
2023-06-04T14:24:31.685Z,22.73
2023-06-04T14:26:59.738Z,22.90
2023-06-04T14:29:27.654Z,23.00
2023-06-04T14:31:55.798Z,23.12
2023-06-04T14:34:24.063Z,23.31
2023-06-04T14:36:52.312Z,23.51
2023-06-04T14:39:22.776Z,23.67
2023-06-04T14:41:51.875Z,23.93
2023-06-04T14:44:19.954Z,24.04
2023-06-04T14:46:48.248Z,24.11
2023-06-04T14:49:16.679Z,24.27
2023-06-04T14:51:44.806Z,24.10
2023-06-04T14:54:12.876Z,24.17
2023-06-04T14:56:40.874Z,24.24
2023-06-04T14:59:12.419Z,24.13
2023-06-04T15:01:41.940Z,23.94
2023-06-04T15:04:10.221Z,23.68
2023-06-04T15:06:38.441Z,23.56
2023-06-04T15:09:06.601Z,23.45
2023-06-04T15:11:34.631Z,23.51
2023-06-04T15:14:02.650Z,23.59
2023-06-04T15:16:30.888Z,23.57
2023-06-04T15:18:59.318Z,23.49
2023-06-04T15:21:27.521Z,23.48
2023-06-04T15:23:55.845Z,23.46
2023-06-04T15:26:25.974Z,23.40
2023-06-04T15:28:55.088Z,23.54
2023-06-04T15:31:23.289Z,23.70
2023-06-04T15:33:51.653Z,23.69
2023-06-04T15:36:19.691Z,23.76
2023-06-04T15:38:49.271Z,23.89
2023-06-04T15:41:19.037Z,23.97
2023-06-04T15:43:47.136Z,24.05
2023-06-04T15:46:15.125Z,24.01
2023-06-04T15:48:43.310Z,23.94
2023-06-04T15:51:11.708Z,23.84
2023-06-04T15:53:39.705Z,23.65
2023-06-04T15:56:07.919Z,23.48
2023-06-04T15:58:36.128Z,23.40
2023-06-04T16:01:04.274Z,23.28
2023-06-04T16:03:32.397Z,23.17
2023-06-04T16:06:00.606Z,23.01
2023-06-04T16:08:28.536Z,22.82
2023-06-04T16:10:56.507Z,22.68
2023-06-04T16:13:24.506Z,22.60
2023-06-04T16:15:52.773Z,22.57
2023-06-04T16:18:20.939Z,22.48
2023-06-04T16:20:48.949Z,22.40
2023-06-04T16:23:17.331Z,22.26
2023-06-04T16:25:45.901Z,22.15
2023-06-04T16:28:14.586Z,22.03
2023-06-04T16:30:42.676Z,22.22
2023-06-04T16:33:11.049Z,22.81
2023-06-04T16:35:39.231Z,23.39
2023-06-04T16:38:07.365Z,23.62
2023-06-04T16:40:35.319Z,24.07
2023-06-04T16:43:03.665Z,24.43
2023-06-04T16:45:31.891Z,24.67
2023-06-04T16:47:59.966Z,24.71
2023-06-04T16:50:28.161Z,24.86
2023-06-04T16:52:56.540Z,25.10
2023-06-04T16:55:32.192Z,24.85
2023-06-04T16:58:13.319Z,24.46
2023-06-04T17:00:42.018Z,24.34
2023-06-04T17:03:10.257Z,24.42
2023-06-04T17:05:38.689Z,24.63
2023-06-04T17:08:07.288Z,25.09
2023-06-04T17:10:35.501Z,25.40
2023-06-04T17:13:03.621Z,25.56
2023-06-04T17:15:31.579Z,25.57
2023-06-04T17:18:02.565Z,25.50
2023-06-04T17:20:31.655Z,25.57
2023-06-04T17:23:03.532Z,25.34
2023-06-04T17:25:33.152Z,24.76
2023-06-04T17:28:01.614Z,24.23
2023-06-04T17:30:29.741Z,23.95
2023-06-04T17:32:57.700Z,23.52
2023-06-04T17:35:25.830Z,23.14
2023-06-04T17:37:53.974Z,22.86
2023-06-04T17:40:23.482Z,22.59
2023-06-04T17:42:52.817Z,22.27
2023-06-04T17:45:20.986Z,22.08
2023-06-04T17:47:48.968Z,21.87
2023-06-04T17:50:17.017Z,21.64
2023-06-04T17:52:48.255Z,21.50
2023-06-04T17:55:16.794Z,21.35
2023-06-04T17:57:44.889Z,21.19
2023-06-04T18:00:13.447Z,21.04
2023-06-04T18:02:41.994Z,20.89
2023-06-04T18:05:10.640Z,20.79
2023-06-04T18:07:38.597Z,20.68
2023-06-04T18:10:07.090Z,20.57
2023-06-04T18:12:36.722Z,20.47
2023-06-04T18:15:07.384Z,20.35
2023-06-04T18:17:35.557Z,20.18
2023-06-04T18:20:03.902Z,20.01
2023-06-04T18:22:32.038Z,19.91
2023-06-04T18:25:00.148Z,19.77
2023-06-04T18:27:28.644Z,19.65
2023-06-04T18:29:56.851Z,19.53
2023-06-04T18:32:24.772Z,19.42
2023-06-04T18:34:52.864Z,19.33
2023-06-04T18:37:21.276Z,19.29
2023-06-04T18:39:49.430Z,19.17
2023-06-04T18:42:30.179Z,19.08
2023-06-04T18:45:01.061Z,18.97
2023-06-04T18:47:29.660Z,18.94
2023-06-04T18:49:57.765Z,18.86
2023-06-04T18:52:25.861Z,18.78
2023-06-04T18:54:53.951Z,18.63
2023-06-04T18:57:22.337Z,18.56
2023-06-04T18:59:50.335Z,18.52
2023-06-04T19:02:18.308Z,18.42
2023-06-04T19:04:47.062Z,18.35
2023-06-04T19:07:15.284Z,18.31
2023-06-04T19:09:43.505Z,18.26
2023-06-04T19:12:11.508Z,18.19
2023-06-04T19:14:39.488Z,18.13
2023-06-04T19:17:08.188Z,18.04
2023-06-04T19:19:36.159Z,17.96
2023-06-04T19:22:04.324Z,17.86
2023-06-04T19:24:33.072Z,17.77
2023-06-04T19:27:01.167Z,17.75
2023-06-04T19:29:29.153Z,17.67
2023-06-04T19:31:57.417Z,17.55
2023-06-04T19:34:26.003Z,17.40
2023-06-04T19:36:54.112Z,17.27
2023-06-04T19:39:22.125Z,17.09
2023-06-04T19:41:50.046Z,16.98
2023-06-04T19:44:18.599Z,16.91
2023-06-04T19:46:49.619Z,16.85
2023-06-04T19:49:20.718Z,16.81
2023-06-04T19:51:49.107Z,16.78
2023-06-04T19:54:17.234Z,16.77
2023-06-04T19:56:45.596Z,16.70
2023-06-04T19:59:13.680Z,16.62
2023-06-04T20:01:41.603Z,16.58
2023-06-04T20:04:09.671Z,16.51
2023-06-04T20:06:37.830Z,16.46
2023-06-04T20:09:05.771Z,16.43
2023-06-04T20:11:33.754Z,16.41
2023-06-04T20:14:02.027Z,16.37
2023-06-04T20:16:30.842Z,16.33
2023-06-04T20:18:58.953Z,16.31
2023-06-04T20:21:34.808Z,16.29
2023-06-04T20:24:04.857Z,16.29
2023-06-04T20:26:34.234Z,16.27
2023-06-04T20:29:02.606Z,16.25
2023-06-04T20:31:30.726Z,16.21
2023-06-04T20:33:58.955Z,16.18
2023-06-04T20:36:27.754Z,16.13
2023-06-04T20:38:57.380Z,16.07
2023-06-04T20:41:26.171Z,15.97
2023-06-04T20:43:55.734Z,15.86
2023-06-04T20:46:23.857Z,15.84
2023-06-04T20:48:51.922Z,15.77
2023-06-04T20:51:19.941Z,15.73
2023-06-04T20:53:48.476Z,15.71
2023-06-04T20:56:17.054Z,15.68
2023-06-04T20:58:45.102Z,15.64
2023-06-04T21:01:13.287Z,15.62
2023-06-04T21:03:41.481Z,15.58
2023-06-04T21:06:09.886Z,15.50
2023-06-04T21:08:38.194Z,15.43
2023-06-04T21:11:06.536Z,15.38
2023-06-04T21:13:35.338Z,15.27
2023-06-04T21:16:03.500Z,15.22
2023-06-04T21:18:31.499Z,15.19
2023-06-04T21:20:59.570Z,15.16
2023-06-04T21:23:27.791Z,15.12
2023-06-04T21:25:56.306Z,15.08
2023-06-04T21:28:24.274Z,14.99
2023-06-04T21:30:52.205Z,14.90
2023-06-04T21:33:20.166Z,14.84
2023-06-04T21:35:48.179Z,14.77
2023-06-04T21:38:16.328Z,14.75
2023-06-04T21:40:44.412Z,14.70
2023-06-04T21:43:12.383Z,14.66
2023-06-04T21:45:41.302Z,14.63
2023-06-04T21:48:09.244Z,14.62
2023-06-04T21:50:37.275Z,14.63
2023-06-04T21:53:05.347Z,14.64
2023-06-04T21:55:33.320Z,14.61
2023-06-04T21:58:01.258Z,14.53
2023-06-04T22:00:29.482Z,14.46
2023-06-04T22:02:57.574Z,14.39
2023-06-04T22:05:25.860Z,14.35
2023-06-04T22:07:54.244Z,14.35
2023-06-04T22:10:22.333Z,14.36
2023-06-04T22:12:50.299Z,14.33
2023-06-04T22:15:18.330Z,14.30
2023-06-04T22:17:46.434Z,14.28
2023-06-04T22:20:14.551Z,14.24
2023-06-04T22:22:42.501Z,14.21
2023-06-04T22:25:10.527Z,14.19
2023-06-04T22:27:38.776Z,14.19
2023-06-04T22:30:07.303Z,14.20
2023-06-04T22:32:35.677Z,14.15
2023-06-04T22:35:03.697Z,14.13
2023-06-04T22:37:31.759Z,14.10
2023-06-04T22:40:01.918Z,14.10
2023-06-04T22:42:31.340Z,14.11
2023-06-04T22:44:59.594Z,14.14
2023-06-04T22:47:27.714Z,14.15
2023-06-04T22:49:55.674Z,14.13
2023-06-04T22:52:24.588Z,14.11
2023-06-04T22:54:53.087Z,14.11
2023-06-04T22:57:21.691Z,14.08
2023-06-04T22:59:49.641Z,14.03
2023-06-04T23:02:17.646Z,13.95
2023-06-04T23:04:45.669Z,13.80
2023-06-04T23:07:13.663Z,13.78
2023-06-04T23:09:41.817Z,13.76
2023-06-04T23:12:10.015Z,13.73
2023-06-04T23:14:38.115Z,13.67
2023-06-04T23:17:06.195Z,13.57
2023-06-04T23:19:34.205Z,13.51
2023-06-04T23:22:02.183Z,13.50
2023-06-04T23:24:30.183Z,13.51
2023-06-04T23:26:58.122Z,13.52
2023-06-04T23:29:26.220Z,13.53
2023-06-04T23:31:54.287Z,13.52
2023-06-04T23:34:22.255Z,13.47
2023-06-04T23:36:50.180Z,13.46
2023-06-04T23:39:18.798Z,13.42
2023-06-04T23:41:46.790Z,13.39
2023-06-04T23:44:16.819Z,13.39
2023-06-04T23:46:46.418Z,13.43
2023-06-04T23:49:14.392Z,13.44
2023-06-04T23:51:42.321Z,13.45
2023-06-04T23:54:11.265Z,13.43
2023-06-04T23:56:41.381Z,13.43
2023-06-04T23:59:10.467Z,13.39
